Time;durP1;ratioP1;P1;durP2;ratioP2;P2;SDS_P1;SDS_P2;PMS_P1;PMS_P2;Temp;Humidity;BMP_temperature;BMP_pressure;BME280_temperature;BME280_humidity;BME280_pressure;Samples;Min_cycle;Max_cycle;Signal;HPM_P1;HPM_P2
2021/08/21 00:01:43;;;;;;;4.85;3.40;;;12.50;99.90;;;;;;4990236;28;20098;-53
2021/08/21 00:04:12;;;;;;;3.90;3.45;;;12.50;99.90;;;;;;4990442;28;20155;-54
2021/08/21 00:06:38;;;;;;;4.32;3.22;;;12.50;99.90;;;;;;4990244;28;20097;-54
2021/08/21 00:09:04;;;;;;;3.22;2.92;;;12.40;99.90;;;;;;4985567;28;20033;-56
2021/08/21 00:11:30;;;;;;;4.95;3.95;;;12.40;99.90;;;;;;4989720;28;20077;-53
2021/08/21 00:13:56;;;;;;;4.35;3.40;;;12.40;99.90;;;;;;4989501;28;20436;-53
2021/08/21 00:16:21;;;;;;;5.40;3.92;;;12.30;99.90;;;;;;4989788;28;20105;-54
2021/08/21 00:18:47;;;;;;;7.53;4.90;;;12.30;99.90;;;;;;4989379;28;20105;-51
2021/08/21 00:21:13;;;;;;;6.90;4.20;;;12.20;99.90;;;;;;4986401;28;20037;-53
2021/08/21 00:23:40;;;;;;;4.88;4.38;;;12.20;99.90;;;;;;4989354;28;20022;-52
2021/08/21 00:26:06;;;;;;;5.13;4.07;;;12.10;99.90;;;;;;4984659;28;20084;-53
2021/08/21 00:28:32;;;;;;;5.85;3.90;;;12.10;99.90;;;;;;4989743;28;20484;-50
2021/08/21 00:30:57;;;;;;;5.28;4.30;;;12.10;99.90;;;;;;4989927;28;20108;-53
2021/08/21 00:33:23;;;;;;;5.90;4.57;;;12.00;99.90;;;;;;4989983;28;20532;-52
2021/08/21 00:35:48;;;;;;;5.57;4.43;;;12.00;99.90;;;;;;4988948;28;20632;-52
2021/08/21 00:38:14;;;;;;;4.35;3.92;;;12.00;99.90;;;;;;4986120;28;20029;-51
2021/08/21 00:40:40;;;;;;;5.30;3.88;;;12.00;99.90;;;;;;4989546;28;20504;-51
2021/08/21 00:43:05;;;;;;;4.10;3.70;;;11.90;99.90;;;;;;4989343;28;20035;-50
2021/08/21 00:45:31;;;;;;;5.50;3.78;;;11.90;99.90;;;;;;4989728;28;20054;-52
2021/08/21 00:47:57;;;;;;;3.35;2.80;;;11.80;99.90;;;;;;4990291;28;20476;-51
2021/08/21 00:50:23;;;;;;;3.42;3.13;;;11.80;99.90;;;;;;4989872;28;20022;-52
2021/08/21 00:52:49;;;;;;;3.50;3.17;;;11.70;99.90;;;;;;4990340;28;20088;-51
2021/08/21 00:55:14;;;;;;;3.50;3.05;;;11.70;99.90;;;;;;4989833;28;20069;-52
2021/08/21 00:57:40;;;;;;;4.63;3.72;;;11.70;99.90;;;;;;4988628;28;20018;-50
2021/08/21 01:00:06;;;;;;;4.57;3.47;;;11.70;99.90;;;;;;4987740;28;20829;-52
2021/08/21 01:02:32;;;;;;;6.65;3.72;;;11.70;99.90;;;;;;4987793;28;20411;-53
2021/08/21 01:04:59;;;;;;;5.30;3.47;;;11.70;99.90;;;;;;4988567;28;20038;-52
2021/08/21 01:07:31;;;;;;;6.10;3.60;;;11.60;99.90;;;;;;4989516;28;20018;-51
2021/08/21 01:10:18;;;;;;;4.00;3.33;;;11.60;99.90;;;;;;4989939;28;20540;-52
2021/08/21 01:12:45;;;;;;;;;;;11.60;99.90;;;;;;4984145;28;20027;-52
2021/08/21 01:15:11;;;;;;;4.47;4.07;;;11.60;99.90;;;;;;4989133;28;19913;-52
2021/08/21 01:17:37;;;;;;;4.30;3.42;;;11.50;99.90;;;;;;4989590;28;20027;-50
2021/08/21 01:20:04;;;;;;;4.57;3.88;;;11.50;99.90;;;;;;4989777;28;20049;-53
2021/08/21 01:22:30;;;;;;;6.50;4.18;;;11.50;99.90;;;;;;4990082;28;20021;-51
2021/08/21 01:24:56;;;;;;;4.60;3.80;;;11.40;99.90;;;;;;4989626;28;20026;-51
2021/08/21 01:27:31;;;;;;;6.53;4.38;;;11.50;99.90;;;;;;4989157;28;20014;-52
2021/08/21 01:29:58;;;;;;;4.63;3.40;;;11.40;99.90;;;;;;4989478;28;20092;-54
2021/08/21 01:32:25;;;;;;;4.25;3.85;;;11.40;99.90;;;;;;4989444;28;20035;-52
2021/08/21 01:34:53;;;;;;;4.00;3.47;;;11.40;99.90;;;;;;4989373;28;20239;-51
2021/08/21 01:37:21;;;;;;;4.32;3.40;;;11.40;99.90;;;;;;4984958;28;20516;-53
2021/08/21 01:39:48;;;;;;;4.43;3.75;;;11.40;99.90;;;;;;4989493;28;20018;-51
2021/08/21 01:42:14;;;;;;;4.97;4.25;;;11.40;99.90;;;;;;4989267;28;20019;-51
2021/08/21 01:44:41;;;;;;;7.60;4.40;;;11.40;99.90;;;;;;4988495;28;20027;-53
2021/08/21 01:47:08;;;;;;;4.43;4.03;;;11.30;99.90;;;;;;4988773;28;20161;-51
2021/08/21 01:49:34;;;;;;;4.50;3.78;;;11.30;99.90;;;;;;4988667;28;20076;-51
2021/08/21 01:52:02;;;;;;;6.47;4.07;;;11.30;99.90;;;;;;4988007;28;20030;-51
2021/08/21 01:54:27;;;;;;;5.97;3.95;;;11.30;99.90;;;;;;4985082;28;20033;-52
2021/08/21 01:56:55;;;;;;;5.03;3.65;;;11.20;99.90;;;;;;4992257;28;20139;-50
2021/08/21 01:59:34;;;;;;;4.60;3.90;;;11.20;99.90;;;;;;4992344;28;20480;-53
2021/08/21 02:02:01;;;;;;;6.22;3.78;;;11.20;99.90;;;;;;4992574;28;20031;-54
2021/08/21 02:04:27;;;;;;;4.15;3.50;;;11.10;99.90;;;;;;4991816;28;20485;-52
2021/08/21 02:06:53;;;;;;;4.70;4.00;;;11.10;99.90;;;;;;4992451;28;20105;-53
2021/08/21 02:09:21;;;;;;;4.47;3.88;;;11.10;99.90;;;;;;4984740;28;20134;-54
2021/08/21 02:11:48;;;;;;;4.55;3.95;;;11.10;99.90;;;;;;4990676;28;20073;-51
2021/08/21 02:14:14;;;;;;;4.53;4.10;;;11.10;99.90;;;;;;4992164;28;20042;-52
2021/08/21 02:16:41;;;;;;;4.88;3.83;;;11.00;99.90;;;;;;4992234;28;20038;-50
2021/08/21 02:19:06;;;;;;;4.28;3.47;;;11.00;99.90;;;;;;4992115;28;20030;-52
2021/08/21 02:21:32;;;;;;;4.25;3.53;;;11.00;99.90;;;;;;4992591;28;20496;-52
2021/08/21 02:23:58;;;;;;;4.32;3.80;;;11.00;99.90;;;;;;4992339;28;20026;-53
2021/08/21 02:26:27;;;;;;;5.13;3.72;;;11.00;99.90;;;;;;4991801;28;20022;-51
2021/08/21 02:28:54;;;;;;;4.97;4.20;;;10.90;99.90;;;;;;4988798;28;20114;-52
2021/08/21 02:31:21;;;;;;;4.03;3.63;;;10.90;99.90;;;;;;4990004;28;20022;-55
2021/08/21 02:33:47;;;;;;;5.45;4.13;;;10.90;99.90;;;;;;4991867;28;20036;-52
2021/08/21 02:36:13;;;;;;;5.15;3.35;;;10.80;99.90;;;;;;4991561;28;20033;-55
2021/08/21 02:38:40;;;;;;;4.35;3.65;;;10.80;99.90;;;;;;4998475;28;20023;-51
2021/08/21 02:41:06;;;;;;;3.88;3.10;;;10.80;99.90;;;;;;4991501;28;20102;-52
2021/08/21 02:43:32;;;;;;;4.55;3.28;;;10.80;99.90;;;;;;4991526;28;20101;-55
2021/08/21 02:45:57;;;;;;;3.72;3.15;;;10.80;99.90;;;;;;4988645;28;20370;-52
2021/08/21 02:48:24;;;;;;;4.65;3.30;;;10.70;99.90;;;;;;4992166;28;20611;-50
2021/08/21 02:50:49;;;;;;;4.22;3.25;;;10.70;99.90;;;;;;4991917;28;20393;-54
2021/08/21 02:53:15;;;;;;;4.70;3.45;;;10.70;99.90;;;;;;5005382;28;20022;-52
2021/08/21 02:55:41;;;;;;;5.03;3.65;;;10.70;99.90;;;;;;4991164;28;20031;-52
2021/08/21 02:58:06;;;;;;;4.07;3.08;;;10.70;99.90;;;;;;4991597;28;20027;-52
2021/08/21 03:00:32;;;;;;;5.85;4.10;;;10.60;99.90;;;;;;4991616;28;20022;-52
2021/08/21 03:02:59;;;;;;;3.75;3.42;;;10.60;99.90;;;;;;4997857;28;20027;-51
2021/08/21 03:05:24;;;;;;;3.97;3.35;;;10.50;99.90;;;;;;4991579;28;20072;-52
2021/08/21 03:07:50;;;;;;;4.22;3.55;;;10.50;99.90;;;;;;4990108;28;20022;-51
2021/08/21 03:10:15;;;;;;;3.60;3.13;;;10.50;99.90;;;;;;4991549;28;20018;-53
2021/08/21 03:12:42;;;;;;;4.55;3.47;;;10.50;99.90;;;;;;4990866;28;20118;-54
2021/08/21 03:15:08;;;;;;;3.60;2.92;;;10.40;99.90;;;;;;4991118;28;20520;-52
2021/08/21 03:17:34;;;;;;;4.80;3.97;;;10.40;99.90;;;;;;4991204;28;20038;-51
2021/08/21 03:19:59;;;;;;;4.70;3.38;;;10.40;99.90;;;;;;4990276;28;20042;-52
2021/08/21 03:22:25;;;;;;;5.95;3.45;;;10.40;99.90;;;;;;4991276;28;20022;-51
2021/08/21 03:24:52;;;;;;;5.53;4.10;;;10.40;99.90;;;;;;4990675;28;20061;-52
2021/08/21 03:27:17;;;;;;;6.00;4.18;;;10.50;99.90;;;;;;4990766;28;20024;-51
2021/08/21 03:29:43;;;;;;;4.47;3.65;;;10.40;99.90;;;;;;4989141;28;20084;-50
2021/08/21 03:32:15;;;;;;;3.38;3.08;;;10.40;99.90;;;;;;4990189;28;20519;-53
2021/08/21 03:34:41;;;;;;;3.42;3.13;;;10.40;99.90;;;;;;4990405;28;20511;-51
2021/08/21 03:37:07;;;;;;;4.18;3.47;;;10.30;99.90;;;;;;4990417;28;20077;-53
2021/08/21 03:39:33;;;;;;;4.13;3.10;;;10.30;99.90;;;;;;4990741;28;20029;-57
2021/08/21 03:41:58;;;;;;;4.57;3.40;;;10.30;99.90;;;;;;4990440;28;20030;-55
2021/08/21 03:44:24;;;;;;;4.13;3.20;;;10.20;99.90;;;;;;4990143;28;20030;-52
2021/08/21 03:46:49;;;;;;;2.72;2.53;;;10.20;99.90;;;;;;4990326;28;20121;-52
2021/08/21 03:49:15;;;;;;;3.17;2.88;;;10.20;99.90;;;;;;4990530;28;20068;-52
2021/08/21 03:51:40;;;;;;;4.25;2.90;;;10.10;99.90;;;;;;4990622;28;20061;-54
2021/08/21 03:54:06;;;;;;;4.13;2.83;;;10.10;99.90;;;;;;4989951;28;20492;-52
2021/08/21 03:56:32;;;;;;;9.05;4.03;;;10.10;99.90;;;;;;4989814;28;20037;-55
2021/08/21 03:58:57;;;;;;;4.63;3.80;;;10.10;99.90;;;;;;4990001;28;20525;-53
2021/08/21 04:01:23;;;;;;;5.05;3.70;;;10.10;99.90;;;;;;4990435;28;20023;-52
2021/08/21 04:03:48;;;;;;;4.80;4.10;;;10.10;99.90;;;;;;4988347;28;20540;-53
2021/08/21 04:06:14;;;;;;;4.95;4.00;;;10.20;99.90;;;;;;4989964;28;20108;-56
2021/08/21 04:08:40;;;;;;;4.00;3.45;;;10.20;99.90;;;;;;4989758;28;20412;-51
2021/08/21 04:11:05;;;;;;;4.57;3.60;;;10.20;99.90;;;;;;4983885;28;20023;-53
2021/08/21 04:13:31;;;;;;;4.93;3.65;;;10.30;99.90;;;;;;4990479;28;20039;-54
2021/08/21 04:15:56;;;;;;;6.43;4.38;;;10.30;99.90;;;;;;4989546;28;20072;-53
2021/08/21 04:18:22;;;;;;;6.43;4.30;;;10.30;99.90;;;;;;4985455;28;20026;-52
2021/08/21 04:20:47;;;;;;;6.25;4.78;;;10.40;99.90;;;;;;4989621;28;20031;-53
2021/08/21 04:23:13;;;;;;;5.20;3.90;;;10.40;99.90;;;;;;4989756;28;20097;-53
2021/08/21 04:25:39;;;;;;;6.25;4.95;;;10.50;99.90;;;;;;4989890;28;20022;-52
2021/08/21 04:28:05;;;;;;;5.47;4.28;;;10.50;99.90;;;;;;4979480;28;20050;-53
2021/08/21 04:30:30;;;;;;;6.55;5.18;;;10.60;99.90;;;;;;4989605;28;20473;-54
2021/08/21 04:32:56;;;;;;;5.93;4.43;;;10.60;99.90;;;;;;4989735;28;20030;-54
2021/08/21 04:35:22;;;;;;;7.32;4.60;;;10.70;99.90;;;;;;4988915;28;20018;-55
2021/08/21 04:37:48;;;;;;;7.43;5.50;;;10.70;99.90;;;;;;4989802;28;20118;-52
2021/08/21 04:40:14;;;;;;;7.55;5.60;;;10.80;99.90;;;;;;4989199;28;20041;-52
2021/08/21 04:42:40;;;;;;;6.10;5.30;;;10.80;99.90;;;;;;4989821;28;20018;-51
2021/08/21 04:45:07;;;;;;;6.25;5.30;;;10.90;99.90;;;;;;4989654;28;20085;-52
2021/08/21 04:47:33;;;;;;;14.15;6.72;;;10.90;99.90;;;;;;4989507;28;20014;-52
2021/08/21 04:49:58;;;;;;;6.93;5.50;;;11.00;99.90;;;;;;4989704;28;20037;-54
2021/08/21 04:52:24;;;;;;;8.38;5.43;;;11.00;99.90;;;;;;4989676;28;20419;-52
2021/08/21 04:54:50;;;;;;;7.93;5.70;;;11.10;99.90;;;;;;4989496;28;20138;-55
2021/08/21 04:57:17;;;;;;;5.85;5.15;;;11.10;99.90;;;;;;4989192;28;20061;-54
2021/08/21 04:59:42;;;;;;;7.93;4.70;;;11.20;99.90;;;;;;4989101;28;20050;-54
2021/08/21 05:02:08;;;;;;;6.07;5.00;;;11.20;99.90;;;;;;4989146;28;20524;-53
2021/08/21 05:04:34;;;;;;;8.00;5.35;;;11.20;99.90;;;;;;4989566;28;20057;-52
2021/08/21 05:06:59;;;;;;;6.35;5.50;;;11.20;99.90;;;;;;4989398;28;20088;-55
2021/08/21 05:09:25;;;;;;;5.93;5.05;;;11.20;99.90;;;;;;4988821;28;20041;-54
2021/08/21 05:11:51;;;;;;;8.15;5.03;;;11.20;99.90;;;;;;4983065;28;20026;-54
2021/08/21 05:14:16;;;;;;;6.40;4.20;;;11.30;99.90;;;;;;4989375;28;20504;-53
2021/08/21 05:16:45;;;;;;;5.07;4.57;;;11.30;99.90;;;;;;4988944;28;20088;-54
2021/08/21 05:19:24;;;;;;;8.95;5.15;;;11.30;99.90;;;;;;5010339;23;20022;-54
2021/08/21 05:21:51;;;;;;;6.97;4.63;;;11.40;99.90;;;;;;4958822;28;20121;-49
2021/08/21 05:24:17;;;;;;;5.90;4.78;;;11.40;99.90;;;;;;4948866;28;20524;-48
2021/08/21 05:26:47;;;;;;;8.05;5.65;;;11.50;99.90;;;;;;4956818;28;20023;-51
2021/08/21 05:29:14;;;;;;;6.85;5.53;;;11.50;99.90;;;;;;4955124;28;20038;-49
2021/08/21 05:31:40;;;;;;;11.00;7.47;;;11.60;99.90;;;;;;4937948;29;20087;-47
2021/08/21 05:34:08;;;;;;;8.65;6.22;;;11.70;99.90;;;;;;4943132;28;20027;-48
2021/08/21 05:36:34;;;;;;;10.27;6.70;;;11.70;99.90;;;;;;4950758;28;20086;-50
2021/08/21 05:38:59;;;;;;;8.43;6.95;;;11.80;99.90;;;;;;4942898;29;20027;-50
2021/08/21 05:41:25;;;;;;;9.98;8.18;;;11.80;99.90;;;;;;4934978;29;20019;-48
2021/08/21 05:43:50;;;;;;;7.53;6.32;;;11.90;99.90;;;;;;4941834;29;20474;-52
2021/08/21 05:46:16;;;;;;;12.02;7.70;;;12.00;99.90;;;;;;4941908;29;20035;-49
2021/08/21 05:48:41;;;;;;;8.85;6.85;;;12.00;99.90;;;;;;4939346;29;20055;-48
2021/08/21 05:51:07;;;;;;;10.80;7.47;;;12.10;99.90;;;;;;4943101;29;20035;-50
2021/08/21 05:53:33;;;;;;;9.93;6.60;;;12.20;99.90;;;;;;4936828;29;20036;-52
2021/08/21 05:55:58;;;;;;;9.50;7.22;;;12.20;99.90;;;;;;4942987;29;20027;-46
2021/08/21 05:58:24;;;;;;;7.80;6.55;;;12.30;99.90;;;;;;4935032;29;20039;-48
2021/08/21 06:00:50;;;;;;;8.70;7.28;;;12.30;99.90;;;;;;4956016;28;20062;-46
2021/08/21 06:03:17;;;;;;;9.35;7.47;;;12.40;99.90;;;;;;4942347;28;20046;-50
2021/08/21 06:05:42;;;;;;;8.77;6.70;;;12.50;99.90;;;;;;4938658;29;20071;-49
2021/08/21 06:08:08;;;;;;;12.43;7.60;;;12.60;99.90;;;;;;4921557;29;20024;-46
2021/08/21 06:10:33;;;;;;;8.07;6.40;;;12.60;99.90;;;;;;4915977;29;20024;-50
2021/08/21 06:12:59;;;;;;;8.82;7.35;;;12.80;99.90;;;;;;4929704;29;20020;-48
2021/08/21 06:15:24;;;;;;;8.65;5.93;;;12.90;99.90;;;;;;4930042;28;20020;-48
2021/08/21 06:17:50;;;;;;;7.72;6.13;;;12.90;99.90;;;;;;4915903;29;20035;-48
2021/08/21 06:20:16;;;;;;;7.38;5.90;;;13.00;99.90;;;;;;4928591;29;20031;-51
2021/08/21 06:22:41;;;;;;;7.63;6.32;;;13.10;99.90;;;;;;4940023;29;20094;-51
2021/08/21 06:25:09;;;;;;;10.07;6.50;;;13.20;99.90;;;;;;4936696;29;20035;-50
2021/08/21 06:27:35;;;;;;;10.30;6.60;;;13.30;99.90;;;;;;4939258;29;20034;-49
2021/08/21 06:30:01;;;;;;;7.95;6.07;;;13.40;99.90;;;;;;4943001;29;20023;-50
2021/08/21 06:32:27;;;;;;;7.65;5.65;;;13.40;99.90;;;;;;4938369;29;20054;-51
2021/08/21 06:34:52;;;;;;;8.75;5.40;;;13.50;99.90;;;;;;4941084;29;20039;-49
2021/08/21 06:37:18;;;;;;;6.57;5.43;;;13.60;99.90;;;;;;4929169;29;20047;-47
2021/08/21 06:39:43;;;;;;;8.65;5.70;;;13.70;99.90;;;;;;4939329;29;20035;-51
2021/08/21 06:42:09;;;;;;;5.47;4.85;;;13.80;99.90;;;;;;4936380;29;20075;-47
2021/08/21 06:44:34;;;;;;;5.78;5.15;;;13.90;99.90;;;;;;4938432;29;20445;-51
2021/08/21 06:47:00;;;;;;;6.18;4.88;;;14.00;99.90;;;;;;4942852;29;20098;-51
2021/08/21 06:49:25;;;;;;;4.30;3.90;;;14.10;99.90;;;;;;4937467;29;20091;-48
2021/08/21 06:51:51;;;;;;;5.47;4.57;;;14.30;99.90;;;;;;4940702;29;20367;-47
2021/08/21 06:54:17;;;;;;;5.75;4.60;;;14.40;99.90;;;;;;4937123;29;20028;-50
2021/08/21 06:56:42;;;;;;;6.68;4.05;;;14.50;99.90;;;;;;4939006;29;20031;-48
2021/08/21 06:59:08;;;;;;;4.22;3.83;;;14.60;99.90;;;;;;4935826;29;20035;-51
2021/08/21 07:01:36;;;;;;;5.18;3.72;;;14.60;99.90;;;;;;4938441;29;20055;-53
2021/08/21 07:04:01;;;;;;;4.20;3.80;;;14.80;99.90;;;;;;4942103;29;20397;-49
2021/08/21 07:06:27;;;;;;;6.57;3.58;;;14.90;99.90;;;;;;4937103;29;20027;-52
2021/08/21 07:08:52;;;;;;;5.38;3.80;;;15.00;99.90;;;;;;4940756;29;20442;-49
2021/08/21 07:11:18;;;;;;;5.47;3.85;;;15.10;99.90;;;;;;4935496;29;20031;-49
2021/08/21 07:13:45;;;;;;;4.18;3.10;;;15.20;99.90;;;;;;4938859;29;20087;-47
2021/08/21 07:16:11;;;;;;;2.53;2.30;;;15.30;99.90;;;;;;4933896;29;20031;-47
2021/08/21 07:18:37;;;;;;;3.05;2.40;;;15.50;99.90;;;;;;4937973;29;20402;-53
2021/08/21 07:21:02;;;;;;;3.20;2.90;;;15.60;99.90;;;;;;4939159;28;20561;-48
2021/08/21 07:23:28;;;;;;;3.47;2.13;;;15.70;99.90;;;;;;4947054;28;20499;-49
2021/08/21 07:25:53;;;;;;;1.85;1.60;;;15.80;99.90;;;;;;4931937;29;20027;-57
2021/08/21 07:28:19;;;;;;;1.63;1.52;;;15.90;99.90;;;;;;4924269;29;20110;-49
2021/08/21 07:30:45;;;;;;;2.20;2.00;;;15.90;99.90;;;;;;4934304;28;20482;-48
2021/08/21 07:33:13;;;;;;;2.33;1.73;;;16.10;99.90;;;;;;4914272;29;20028;-55
2021/08/21 07:35:38;;;;;;;1.90;1.75;;;16.20;99.90;;;;;;4912716;29;20046;-50
2021/08/21 07:38:05;;;;;;;2.30;1.73;;;16.20;99.90;;;;;;4921080;29;20483;-52
2021/08/21 07:40:31;;;;;;;1.70;1.60;;;16.20;99.90;;;;;;4917380;29;20016;-50
2021/08/21 07:42:56;;;;;;;1.83;1.63;;;16.30;99.90;;;;;;4915005;29;20061;-52
2021/08/21 07:45:22;;;;;;;2.13;1.98;;;16.40;99.90;;;;;;4918311;29;20020;-49
2021/08/21 07:47:49;;;;;;;1.50;1.40;;;16.50;99.90;;;;;;4931826;29;20024;-49
2021/08/21 07:50:16;;;;;;;2.00;1.38;;;16.60;99.90;;;;;;4932065;29;20099;-54
2021/08/21 07:52:46;;;;;;;1.75;1.50;;;16.70;99.90;;;;;;4931424;29;20020;-50
2021/08/21 07:55:13;;;;;;;1.38;1.20;;;16.80;99.90;;;;;;4918087;29;20032;-50
2021/08/21 07:57:38;;;;;;;2.00;1.60;;;16.90;99.90;;;;;;4932190;29;20063;-50
2021/08/21 08:00:05;;;;;;;2.80;1.40;;;17.00;99.90;;;;;;4931903;29;20068;-49
2021/08/21 08:02:31;;;;;;;1.55;1.10;;;17.10;99.90;;;;;;4932079;29;20012;-55
2021/08/21 08:04:56;;;;;;;3.17;1.58;;;17.20;99.90;;;;;;4919298;29;20028;-50
2021/08/21 08:07:22;;;;;;;2.53;1.52;;;17.30;99.90;;;;;;4928887;29;20050;-50
2021/08/21 08:09:47;;;;;;;3.00;1.52;;;17.40;99.90;;;;;;4929417;29;20498;-50
2021/08/21 08:12:13;;;;;;;2.03;1.90;;;17.50;99.90;;;;;;4915716;29;20418;-55
2021/08/21 08:14:39;;;;;;;1.15;1.13;;;17.70;99.90;;;;;;4931416;29;20471;-50
2021/08/21 08:17:05;;;;;;;2.78;1.88;;;17.80;99.90;;;;;;4918581;29;20571;-47
2021/08/21 08:19:30;;;;;;;2.85;1.30;;;18.00;99.90;;;;;;4931801;29;20206;-54
2021/08/21 08:21:56;;;;;;;1.52;1.42;;;18.10;99.90;;;;;;4940451;29;20066;-49
2021/08/21 08:24:23;;;;;;;2.20;1.50;;;18.20;99.90;;;;;;4932182;29;20159;-57
2021/08/21 08:26:49;;;;;;;1.58;1.15;;;18.30;99.90;;;;;;4938795;29;20046;-50
2021/08/21 08:29:15;;;;;;;2.50;1.30;;;18.40;99.90;;;;;;4931483;28;20028;-50
2021/08/21 08:31:41;;;;;;;2.35;1.00;;;18.50;99.90;;;;;;4930622;29;20410;-51
2021/08/21 08:34:07;;;;;;;1.42;1.10;;;18.50;99.90;;;;;;4931591;29;20028;-49
2021/08/21 08:36:32;;;;;;;1.33;1.02;;;18.50;99.90;;;;;;4929930;29;20042;-53
2021/08/21 08:38:58;;;;;;;1.58;1.00;;;18.60;99.90;;;;;;4931322;29;20554;-52
2021/08/21 08:41:24;;;;;;;1.10;1.10;;;18.70;99.90;;;;;;4931069;29;20110;-55
2021/08/21 08:43:50;;;;;;;1.30;1.08;;;18.80;99.90;;;;;;4931025;29;20023;-47
2021/08/21 08:46:20;;;;;;;1.77;1.00;;;18.80;99.90;;;;;;4931215;29;20054;-49
2021/08/21 08:48:46;;;;;;;1.60;1.15;;;18.90;99.90;;;;;;4928800;29;20132;-47
2021/08/21 08:51:12;;;;;;;2.40;1.08;;;18.90;99.90;;;;;;4930955;29;20031;-48
2021/08/21 08:53:38;;;;;;;1.10;0.90;;;19.00;99.90;;;;;;4930767;29;20027;-52
2021/08/21 08:56:04;;;;;;;1.55;1.17;;;19.00;99.90;;;;;;4935501;29;20035;-50
2021/08/21 08:58:30;;;;;;;0.98;0.90;;;19.10;99.90;;;;;;4930899;29;20032;-46
2021/08/21 09:00:56;;;;;;;0.82;0.73;;;19.30;99.90;;;;;;4931027;29;20023;-47
2021/08/21 09:03:24;;;;;;;1.67;0.90;;;19.40;99.90;;;;;;4931305;29;20031;-48
2021/08/21 09:05:51;;;;;;;0.75;0.75;;;19.50;99.90;;;;;;4930700;29;20051;-49
2021/08/21 09:08:29;;;;;;;1.73;0.90;;;19.60;99.90;;;;;;4931068;29;20047;-52
2021/08/21 09:10:56;;;;;;;0.90;0.90;;;19.70;99.90;;;;;;4928939;29;20027;-46
2021/08/21 09:13:23;;;;;;;2.97;1.00;;;19.70;99.90;;;;;;4931091;29;20505;-49
2021/08/21 09:15:54;;;;;;;2.55;1.35;;;19.80;99.90;;;;;;4930732;29;20019;-52
2021/08/21 09:18:21;;;;;;;1.58;1.10;;;19.80;99.90;;;;;;4923465;29;20027;-50
2021/08/21 09:20:52;;;;;;;1.45;1.20;;;19.90;99.90;;;;;;4933824;29;20038;-53
2021/08/21 09:23:20;;;;;;;1.13;0.82;;;20.00;99.90;;;;;;4935057;29;20024;-49
2021/08/21 09:25:48;;;;;;;1.52;0.80;;;20.20;99.90;;;;;;4933965;29;20034;-49
2021/08/21 09:28:20;;;;;;;1.58;0.93;;;20.20;99.90;;;;;;4935636;29;20024;-53
2021/08/21 09:30:46;;;;;;;1.42;1.08;;;20.30;99.90;;;;;;4937059;28;20043;-52
2021/08/21 09:33:15;;;;;;;1.33;0.80;;;20.40;99.90;;;;;;4936984;29;20516;-52
2021/08/21 09:35:40;;;;;;;1.20;0.75;;;20.50;99.90;;;;;;4936831;28;20043;-51
2021/08/21 09:38:06;;;;;;;1.13;0.95;;;20.50;99.90;;;;;;4932923;29;20514;-49
2021/08/21 09:40:34;;;;;;;1.40;1.30;;;20.70;99.90;;;;;;4936673;29;20526;-54
2021/08/21 09:43:02;;;;;;;3.08;1.00;;;20.70;99.90;;;;;;4933555;29;20028;-52
2021/08/21 09:45:28;;;;;;;0.77;0.77;;;20.60;99.90;;;;;;4939494;29;20027;-51
2021/08/21 09:48:02;;;;;;;0.82;0.82;;;20.60;99.90;;;;;;4929804;28;20036;-56
2021/08/21 09:50:35;;;;;;;1.70;0.80;;;20.60;99.90;;;;;;4931694;29;20706;-52
2021/08/21 09:53:06;;;;;;;2.20;0.82;;;20.60;99.90;;;;;;4916602;28;20036;-52
2021/08/21 09:55:33;;;;;;;0.70;0.63;;;20.70;99.90;;;;;;4911649;29;20040;-56
2021/08/21 09:58:07;;;;;;;1.40;0.80;;;20.70;99.90;;;;;;4911129;29;20029;-52
2021/08/21 10:00:37;;;;;;;0.70;0.63;;;20.70;99.90;;;;;;4926843;29;20054;-51
2021/08/21 10:03:05;;;;;;;1.05;0.50;;;20.70;99.90;;;;;;4931081;29;20056;-53
2021/08/21 10:05:32;;;;;;;0.73;0.70;;;20.80;99.90;;;;;;4931489;29;20091;-54
2021/08/21 10:08:02;;;;;;;2.72;0.90;;;20.80;99.90;;;;;;4933349;28;20060;-53
2021/08/21 10:10:34;;;;;;;1.38;0.93;;;20.80;99.90;;;;;;4930429;29;20034;-47
2021/08/21 10:13:08;;;;;;;0.80;0.63;;;20.90;99.90;;;;;;4930966;29;20046;-53
2021/08/21 10:15:37;;;;;;;1.10;1.00;;;20.80;99.90;;;;;;4930280;29;20390;-50
2021/08/21 10:18:03;;;;;;;1.20;0.80;;;20.90;99.90;;;;;;4937793;29;20496;-53
2021/08/21 10:20:29;;;;;;;0.73;0.70;;;21.00;99.90;;;;;;4937017;29;20032;-50
2021/08/21 10:22:55;;;;;;;1.60;0.98;;;21.00;99.90;;;;;;4952475;28;20479;-47
2021/08/21 10:25:25;;;;;;;0.68;0.68;;;21.00;99.90;;;;;;4932251;29;20023;-54
2021/08/21 10:27:56;;;;;;;1.83;1.20;;;21.00;99.90;;;;;;4935593;29;20020;-56
2021/08/21 10:30:26;;;;;;;2.00;0.88;;;21.00;99.90;;;;;;4934933;29;20492;-47
2021/08/21 10:33:00;;;;;;;0.85;0.80;;;21.10;99.90;;;;;;4938127;29;20023;-54
2021/08/21 10:35:45;;;;;;;0.73;0.73;;;21.10;99.90;;;;;;4941012;29;20030;-52
2021/08/21 10:38:28;;;;;;;0.80;0.80;;;21.10;99.90;;;;;;4937362;29;20023;-48
2021/08/21 10:40:58;;;;;;;1.50;1.20;;;21.00;99.90;;;;;;4936389;29;20495;-48
2021/08/21 10:43:50;;;;;;;1.42;0.90;;;21.00;99.90;;;;;;4937060;29;20099;-51
2021/08/21 10:46:31;;;;;;;1.60;0.70;;;21.20;99.90;;;;;;4940415;28;20560;-54
2021/08/21 10:49:09;;;;;;;0.98;0.85;;;21.30;99.90;;;;;;4939246;29;20117;-48
2021/08/21 10:51:41;;;;;;;0.90;0.77;;;21.30;99.90;;;;;;4939929;29;20729;-51
2021/08/21 10:54:18;;;;;;;0.93;0.70;;;21.40;99.90;;;;;;4938026;29;20524;-48
2021/08/21 10:56:44;;;;;;;1.42;1.02;;;21.40;99.90;;;;;;4939046;29;20054;-55
2021/08/21 10:59:10;;;;;;;1.42;0.80;;;21.40;99.90;;;;;;4936199;29;20494;-55
2021/08/21 11:01:35;;;;;;;0.52;0.52;;;21.50;99.90;;;;;;4938474;29;20028;-47
2021/08/21 11:04:01;;;;;;;1.63;0.90;;;21.60;99.90;;;;;;4942353;29;20415;-47
2021/08/21 11:06:32;;;;;;;0.80;0.68;;;21.70;99.90;;;;;;4937490;29;20475;-54
2021/08/21 11:09:00;;;;;;;0.90;0.73;;;21.80;99.90;;;;;;4954151;28;20025;-50
2021/08/21 11:11:45;;;;;;;0.90;0.90;;;21.80;99.90;;;;;;4924902;29;20020;-51
2021/08/21 11:14:10;;;;;;;2.05;1.25;;;21.90;99.90;;;;;;4918747;29;20040;-53
2021/08/21 11:16:46;;;;;;;1.00;0.75;;;21.90;99.90;;;;;;4933453;29;20115;-54
2021/08/21 11:19:24;;;;;;;1.08;0.93;;;22.00;99.90;;;;;;4932708;29;20059;-56
2021/08/21 11:21:50;;;;;;;0.90;0.90;;;21.90;99.90;;;;;;5014458;23;20096;-55
2021/08/21 11:24:51;;;;;;;1.00;0.93;;;21.90;99.80;;;;;;4990698;28;20022;-52
2021/08/21 11:27:22;;;;;;;0.70;0.70;;;21.90;99.90;;;;;;4980762;28;20049;-54
2021/08/21 11:30:10;;;;;;;0.90;0.80;;;21.90;99.90;;;;;;4995483;28;20026;-56
2021/08/21 11:32:47;;;;;;;1.00;0.80;;;21.80;99.90;;;;;;4989419;28;20069;-55
2021/08/21 11:35:49;;;;;;;1.70;0.80;;;21.80;99.60;;;;;;4996534;28;20034;-55
2021/08/21 11:38:28;;;;;;;1.83;0.88;;;21.90;99.90;;;;;;4983599;28;20029;-54
2021/08/21 11:40:58;;;;;;;1.25;1.13;;;22.00;99.90;;;;;;4993934;28;20018;-50
2021/08/21 11:43:29;;;;;;;1.77;1.00;;;22.00;99.90;;;;;;4986822;28;20046;-53
2021/08/21 11:45:56;;;;;;;1.27;0.80;;;22.00;99.90;;;;;;4999202;28;20137;-54
2021/08/21 11:48:29;;;;;;;0.80;0.80;;;22.00;99.90;;;;;;4988351;28;20023;-53
2021/08/21 11:50:56;;;;;;;1.60;0.70;;;22.00;99.90;;;;;;4998794;28;20025;-50
2021/08/21 11:53:23;;;;;;;0.85;0.85;;;22.10;99.20;;;;;;4985277;28;20019;-51
2021/08/21 11:55:52;;;;;;;1.52;1.00;;;22.20;99.30;;;;;;4996336;28;20542;-55
2021/08/21 11:58:29;;;;;;;1.48;1.00;;;22.40;99.10;;;;;;4987359;28;20556;-53
2021/08/21 12:01:02;;;;;;;1.00;0.75;;;22.40;99.10;;;;;;4993238;28;20034;-54
2021/08/21 12:06:32;;;;;;;0.85;0.82;;;22.60;99.90;;;;;;4964640;28;20043;-54
2021/08/21 12:09:14;;;;;;;1.40;1.30;;;22.60;99.00;;;;;;4976926;28;20031;-53
2021/08/21 12:11:44;;;;;;;1.38;1.20;;;22.70;97.40;;;;;;4978240;28;20027;-52
2021/08/21 12:14:11;;;;;;;1.08;0.80;;;22.70;97.90;;;;;;4971139;28;20497;-55
2021/08/21 12:16:39;;;;;;;0.98;0.90;;;22.80;98.40;;;;;;4969845;28;20105;-54
2021/08/21 12:19:05;;;;;;;1.15;0.80;;;22.90;97.90;;;;;;4973743;28;20027;-53
2021/08/21 12:21:32;;;;;;;2.03;0.90;;;22.80;95.90;;;;;;4973909;28;20049;-52
2021/08/21 12:23:58;;;;;;;1.02;0.90;;;22.70;96.20;;;;;;4972573;28;20118;-52
2021/08/21 12:26:33;;;;;;;0.98;0.98;;;22.60;97.20;;;;;;4976012;28;20143;-53
2021/08/21 12:28:59;;;;;;;2.78;1.10;;;22.60;98.80;;;;;;4976194;28;20110;-52
2021/08/21 12:31:36;;;;;;;1.05;0.98;;;22.60;98.70;;;;;;4974776;28;20038;-53
2021/08/21 12:34:02;;;;;;;1.05;0.98;;;22.70;99.80;;;;;;4974068;28;20118;-51
2021/08/21 12:36:28;;;;;;;1.98;1.15;;;22.60;97.20;;;;;;4986760;28;20029;-52
2021/08/21 12:39:00;;;;;;;3.58;1.00;;;22.60;99.70;;;;;;4994298;28;20076;-54
2021/08/21 12:41:27;;;;;;;1.02;0.80;;;22.70;99.80;;;;;;4989915;28;20029;-53
2021/08/21 12:44:07;;;;;;;1.20;1.00;;;22.80;99.70;;;;;;4997397;28;20383;-50
2021/08/21 12:46:34;;;;;;;1.60;0.90;;;22.80;98.10;;;;;;4983048;28;20492;-52
2021/08/21 12:49:09;;;;;;;0.80;0.80;;;22.70;99.40;;;;;;4995513;28;20033;-52
2021/08/21 12:51:37;;;;;;;1.17;0.85;;;22.70;98.20;;;;;;4983388;28;20027;-54
2021/08/21 12:54:08;;;;;;;1.83;0.80;;;22.70;99.20;;;;;;4993609;28;20030;-53